Aviation Digital Data Service (ADDS)

Output produced by METARs form (0503 UTC 27 July 2017)
found at http://www.aviationweather.gov/adds/metars/
 
KRWF 270453Z AUTO 33005KT 10SM CLR 21/16 A3005 RMK AO2 SLP172 T02060161 TSNO
KMSP 270453Z 29003KT 10SM FEW300 22/17 A3003 RMK AO2 SLP164 T02170172